Sky Beauty — DSRI6 — position and weather

sailwx.info

Track history (hours):
 
Tides and Currents Weather Stations Pressure Air Temp Water Temp Dewpoint Dewpoint Depression Visibility Wind Speed Wind Dir Waves Ship Positions

Sky Beauty

Last reported at 2018-Feb-20 11:00 UTC. Time now 2018-Feb-20 11:23 UTC.
Position N 34°22' E 130°16'.

Length 92 m; draft 5.4 m.

Type: Cargo ship. MMSI: 441874000.

Date/timePositionNaut miles runAvg speedWind from/ knotsBaromVisibWave heightAir tempDewpointWater temp
2018-Feb-20 11:00N 34°22' E 130°16'611.6
2018-Feb-20 10:28N 34°26' E 130°10'  
2018-Feb-17 05:23N 34°17' E 130°13'410.3
2018-Feb-17 04:59N 34°15' E 130°17'5 9.7
2018-Feb-17 04:30N 34°13' E 130°22'5 9.6
2018-Feb-17 04:00N 34°10' E 130°27'5 9.9
2018-Feb-17 03:30N 34°08' E 130°32'5 9.8
2018-Feb-17 03:00N 34°06' E 130°37'5 9.9
2018-Feb-17 02:30N 34°03' E 130°43'510.2
2018-Feb-17 02:00N 34°02' E 130°48'5 9.9
2018-Feb-17 01:30N 33°57' E 130°51'4 8.7
2018-Feb-17 01:01N 33°56' E 130°56'611.3
2018-Feb-17 00:30N 33°58' E 131°03'611.6
2018-Feb-17 00:00N 33°54' E 131°09'611.8
2018-Feb-16 23:30N 33°51' E 131°15'611.8
2018-Feb-16 23:00N 33°50' E 131°22'611.6
2018-Feb-16 22:30N 33°49' E 131°29'611.7
2018-Feb-16 22:00N 33°48' E 131°36'611.9
2018-Feb-16 21:30N 33°47' E 131°43'611.4
2018-Feb-16 21:00N 33°45' E 131°49'611.0
2018-Feb-16 20:30N 33°44' E 131°56'610.8
2018-Feb-16 19:55N 33°43' E 132°03'510.8
2018-Feb-16 19:30N 33°42' E 132°09'611.4
2018-Feb-16 18:59N 33°44' E 132°15'611.8
2018-Feb-16 18:27N 33°46' E 132°22'612.0
2018-Feb-16 17:59N 33°48' E 132°29'612.2
2018-Feb-16 17:30N 33°52' E 132°34'612.5
2018-Feb-16 17:00N 33°56' E 132°40'612.4
2018-Feb-16 16:30N 34°01' E 132°45'7410.4
2018-Feb-16 09:24N 34°26' E 134°09'612.0
2018-Feb-16 08:55N 34°24' E 134°15'511.4
2018-Feb-16 08:29N 34°25' E 134°21'611.5
2018-Feb-16 08:00N 34°27' E 134°28'511.3
2018-Feb-16 07:30N 34°29' E 134°34'511.0
2018-Feb-16 07:00N 34°31' E 134°40'510.9
2018-Feb-16 06:30N 34°33' E 134°46'510.2
2018-Feb-16 06:00N 34°35' E 134°52'4 8.9
2018-Feb-16 05:30N 34°37' E 134°57'4 8.5
2018-Feb-16 05:00N 34°37' E 135°02'5 9.4
2018-Feb-16 04:30N 34°36' E 135°08'510.8
2018-Feb-16 04:00N 34°37' E 135°14'4 7.2
2018-Feb-16 03:30N 34°41' E 135°14'1 2.1
2018-Feb-16 03:00N 34°42' E 135°13'0 0.0
2018-Feb-16 02:30N 34°42' E 135°13'0 0.0
2018-Feb-16 01:59N 34°42' E 135°13'0 0.0
2018-Feb-16 01:30N 34°42' E 135°13'0 0.0
2018-Feb-16 00:59N 34°42' E 135°13'0 0.0
2018-Feb-16 00:29N 34°42' E 135°13'0 0.0
2018-Feb-15 23:59N 34°42' E 135°13'0 0.0
2018-Feb-15 23:29N 34°42' E 135°13'0 0.0
2018-Feb-15 22:59N 34°42' E 135°13'0 0.0
2018-Feb-15 22:29N 34°42' E 135°13'0 0.0
2018-Feb-15 21:59N 34°42' E 135°13'0 0.0
2018-Feb-15 21:29N 34°42' E 135°13'0 0.0
2018-Feb-15 20:59N 34°42' E 135°13'0 0.0
2018-Feb-15 20:29N 34°42' E 135°13'0 0.0
2018-Feb-15 19:59N 34°42' E 135°13'0 0.0
2018-Feb-15 19:29N 34°42' E 135°13'0 0.0
2018-Feb-15 18:59N 34°42' E 135°13'0 0.0
2018-Feb-15 18:29N 34°42' E 135°13'0 0.0
2018-Feb-15 17:59N 34°42' E 135°13'0 0.0
2018-Feb-15 17:29N 34°42' E 135°13'0 0.0
2018-Feb-15 16:59N 34°42' E 135°13'0 0.0
2018-Feb-15 16:29N 34°42' E 135°13'0 0.0
2018-Feb-15 15:59N 34°42' E 135°13'0 0.0
2018-Feb-15 15:29N 34°42' E 135°13'0 0.0
2018-Feb-15 14:59N 34°42' E 135°13'0 0.0
2018-Feb-15 14:29N 34°42' E 135°13'0 0.0
2018-Feb-15 13:59N 34°42' E 135°13'0 0.0
2018-Feb-15 13:29N 34°42' E 135°13'0 0.0
2018-Feb-15 12:59N 34°42' E 135°13'0 0.0
2018-Feb-15 12:29N 34°42' E 135°13'0 0.0
2018-Feb-15 11:59N 34°42' E 135°13'0 0.0
2018-Feb-15 11:29N 34°42' E 135°13'0 0.0
2018-Feb-15 10:59N 34°42' E 135°13'0 0.0
2018-Feb-15 10:29N 34°42' E 135°13'0 0.0
2018-Feb-15 09:59N 34°42' E 135°13'0 0.0
2018-Feb-15 09:29N 34°42' E 135°13'0 0.0
2018-Feb-15 08:59N 34°42' E 135°13'0 0.0
2018-Feb-15 08:29N 34°42' E 135°13'0 0.0
2018-Feb-15 07:59N 34°42' E 135°13'0 0.6
2018-Feb-15 07:30N 34°41' E 135°13'4 7.4
2018-Feb-15 07:00N 34°38' E 135°16'2 3.3
2018-Feb-15 06:29N 34°37' E 135°14'0 0.0
2018-Feb-15 05:59N 34°37' E 135°14'0 0.0
2018-Feb-15 05:29N 34°37' E 135°14'0 0.0
2018-Feb-15 04:59N 34°37' E 135°14'0 0.0
2018-Feb-15 04:29N 34°37' E 135°14'0 0.0
2018-Feb-15 03:59N 34°37' E 135°14'2 4.2
2018-Feb-15 03:30N 34°36' E 135°12'510.2
2018-Feb-15 03:00N 34°35' E 135°07'610.9
2018-Feb-15 02:30N 34°37' E 135°01'611.6
2018-Feb-15 02:00N 34°35' E 134°54'5 9.7
2018-Feb-15 01:31N 34°33' E 134°49'5 9.7
2018-Feb-15 01:00N 34°31' E 134°43'510.6
2018-Feb-15 00:31N 34°29' E 134°37'510.8
2018-Feb-15 00:00N 34°27' E 134°31'510.6
2018-Feb-14 23:30N 34°25' E 134°25'510.4
2018-Feb-14 23:00N 34°24' E 134°19'510.1
2018-Feb-14 22:30N 34°24' E 134°13'8 9.5
2018-Feb-14 21:40N 34°26' E 134°04'66 9.6
2018-Feb-14 14:49N 34°04' E 132°49'410.9
2018-Feb-14 14:28N 34°01' E 132°46'511.2
2018-Feb-14 14:00N 33°57' E 132°43'611.6
2018-Feb-14 13:30N 33°53' E 132°37'611.6
2018-Feb-14 13:01N 33°49' E 132°32'611.6
2018-Feb-14 12:30N 33°46' E 132°26'711.9
2018-Feb-14 11:57N 33°43' E 132°19'1512.0
2018-Feb-14 10:44N 33°34' E 132°05'512.2
2018-Feb-14 10:17N 33°31' E 131°60'312.1
2018-Feb-14 10:00N 33°29' E 131°56'612.1
2018-Feb-14 09:30N 33°25' E 131°51'611.6
2018-Feb-14 09:00N 33°22' E 131°45'511.0
2018-Feb-14 08:30N 33°18' E 131°40'3 0.2
2018-Feb-13 21:32N 33°16' E 131°40'0 1.2
2018-Feb-13 21:27N 33°16' E 131°40'2 3.9
2018-Feb-13 21:00N 33°17' E 131°40'4 6.8
2018-Feb-13 20:29N 33°17' E 131°45'2 4.2
2018-Feb-13 19:59N 33°16' E 131°47'0 0.0
2018-Feb-13 19:23N 33°16' E 131°47'0 0.1
2018-Feb-13 18:47N 33°16' E 131°47'0 0.0
2018-Feb-13 18:29N 33°16' E 131°47'0 0.0
2018-Feb-13 17:59N 33°16' E 131°47'0 0.0
2018-Feb-13 17:11N 33°16' E 131°47'0 0.0
2018-Feb-13 16:59N 33°16' E 131°47'0 0.0
2018-Feb-13 16:29N 33°16' E 131°47'0 0.0
2018-Feb-13 15:53N 33°16' E 131°47'0 0.0
2018-Feb-13 15:23N 33°16' E 131°47'0 0.0
2018-Feb-13 14:53N 33°16' E 131°47'0 0.0
2018-Feb-13 14:29N 33°16' E 131°47'0 0.0
2018-Feb-13 13:59N 33°16' E 131°47'0 0.0
2018-Feb-13 13:23N 33°16' E 131°47'0 0.0
2018-Feb-13 12:08N 33°16' E 131°47'0 0.1
2018-Feb-13 11:53N 33°16' E 131°47'0 0.0
2018-Feb-13 11:29N 33°16' E 131°47'0 0.0
2018-Feb-13 10:59N 33°16' E 131°47'0 0.0
2018-Feb-13 10:26N 33°16' E 131°47'0 0.0
2018-Feb-13 09:53N 33°16' E 131°47'0 0.0
2018-Feb-13 09:27N 33°16' E 131°47'2 3.9
2018-Feb-13 09:00N 33°18' E 131°47'611.2
2018-Feb-13 08:30N 33°23' E 131°48'610.9
2018-Feb-13 08:00N 33°29' E 131°49'510.7
2018-Feb-13 07:30N 33°34' E 131°49'611.0
2018-Feb-13 06:58N 33°39' E 131°46'511.4
2018-Feb-13 06:30N 33°44' E 131°43'611.2
2018-Feb-13 06:01N 33°46' E 131°37'611.6
2018-Feb-13 05:29N 33°48' E 131°30'611.6
2018-Feb-13 05:00N 33°49' E 131°23'611.9
2018-Feb-13 04:30N 33°50' E 131°17'611.9
2018-Feb-13 04:00N 33°52' E 131°10'611.9
2018-Feb-13 03:30N 33°56' E 131°04'510.2
2018-Feb-13 03:00N 33°58' E 130°59'5 9.6
2018-Feb-13 02:30N 33°54' E 130°55'5 9.6
2018-Feb-13 02:00N 33°58' E 130°51'510.1
2018-Feb-13 01:30N 34°02' E 130°48'611.2
2018-Feb-13 01:00N 34°03' E 130°41'611.4
2018-Feb-13 00:30N 34°03' E 130°34'611.2
2018-Feb-13 00:00N 34°03' E 130°28'611.2
2018-Feb-12 23:30N 34°03' E 130°21'611.3
2018-Feb-12 23:00N 34°03' E 130°14'611.3
2018-Feb-12 22:30N 34°03' E 130°07'611.1
2018-Feb-12 22:00N 34°03' E 130°00'611.2
2018-Feb-12 21:30N 34°02' E 129°54'  
2018-Feb-10 11:06N 34°24' E 130°11'110.2
2018-Feb-10 11:00N 34°23' E 130°12'  
Track history (hours):
 
Tides and Currents Weather Stations Pressure Air Temp Water Temp Dewpoint Dewpoint Depression Visibility Wind Speed Wind Dir Waves Ship Positions

Sky Beauty

Last reported at 2018-Feb-20 11:00 UTC. Time now 2018-Feb-20 11:23 UTC.
Position N 34°22' E 130°16'.

Length 92 m; draft 5.4 m.

Type: Cargo ship. MMSI: 441874000.

Date/timePositionNaut miles runAvg speedWind from/ knotsBaromVisibWave heightAir tempDewpointWater temp
2018-Feb-20 11:00N 34°22' E 130°16'611.6
2018-Feb-20 10:28N 34°26' E 130°10'  
2018-Feb-17 05:23N 34°17' E 130°13'410.3
2018-Feb-17 04:59N 34°15' E 130°17'5 9.7
2018-Feb-17 04:30N 34°13' E 130°22'5 9.6
2018-Feb-17 04:00N 34°10' E 130°27'5 9.9
2018-Feb-17 03:30N 34°08' E 130°32'5 9.8
2018-Feb-17 03:00N 34°06' E 130°37'5 9.9
2018-Feb-17 02:30N 34°03' E 130°43'510.2
2018-Feb-17 02:00N 34°02' E 130°48'5 9.9
2018-Feb-17 01:30N 33°57' E 130°51'4 8.7
2018-Feb-17 01:01N 33°56' E 130°56'611.3
2018-Feb-17 00:30N 33°58' E 131°03'611.6
2018-Feb-17 00:00N 33°54' E 131°09'611.8
2018-Feb-16 23:30N 33°51' E 131°15'611.8
2018-Feb-16 23:00N 33°50' E 131°22'611.6
2018-Feb-16 22:30N 33°49' E 131°29'611.7
2018-Feb-16 22:00N 33°48' E 131°36'611.9
2018-Feb-16 21:30N 33°47' E 131°43'611.4
2018-Feb-16 21:00N 33°45' E 131°49'611.0
2018-Feb-16 20:30N 33°44' E 131°56'610.8
2018-Feb-16 19:55N 33°43' E 132°03'510.8
2018-Feb-16 19:30N 33°42' E 132°09'611.4
2018-Feb-16 18:59N 33°44' E 132°15'611.8
2018-Feb-16 18:27N 33°46' E 132°22'612.0
2018-Feb-16 17:59N 33°48' E 132°29'612.2
2018-Feb-16 17:30N 33°52' E 132°34'612.5
2018-Feb-16 17:00N 33°56' E 132°40'612.4
2018-Feb-16 16:30N 34°01' E 132°45'7410.4
2018-Feb-16 09:24N 34°26' E 134°09'612.0
2018-Feb-16 08:55N 34°24' E 134°15'511.4
2018-Feb-16 08:29N 34°25' E 134°21'611.5
2018-Feb-16 08:00N 34°27' E 134°28'511.3
2018-Feb-16 07:30N 34°29' E 134°34'511.0
2018-Feb-16 07:00N 34°31' E 134°40'510.9
2018-Feb-16 06:30N 34°33' E 134°46'510.2
2018-Feb-16 06:00N 34°35' E 134°52'4 8.9
2018-Feb-16 05:30N 34°37' E 134°57'4 8.5
2018-Feb-16 05:00N 34°37' E 135°02'5 9.4
2018-Feb-16 04:30N 34°36' E 135°08'510.8
2018-Feb-16 04:00N 34°37' E 135°14'4 7.2
2018-Feb-16 03:30N 34°41' E 135°14'1 2.1
2018-Feb-16 03:00N 34°42' E 135°13'0 0.0
2018-Feb-16 02:30N 34°42' E 135°13'0 0.0
2018-Feb-16 01:59N 34°42' E 135°13'0 0.0
2018-Feb-16 01:30N 34°42' E 135°13'0 0.0
2018-Feb-16 00:59N 34°42' E 135°13'0 0.0
2018-Feb-16 00:29N 34°42' E 135°13'0 0.0
2018-Feb-15 23:59N 34°42' E 135°13'0 0.0
2018-Feb-15 23:29N 34°42' E 135°13'0 0.0
2018-Feb-15 22:59N 34°42' E 135°13'0 0.0
2018-Feb-15 22:29N 34°42' E 135°13'0 0.0
2018-Feb-15 21:59N 34°42' E 135°13'0 0.0
2018-Feb-15 21:29N 34°42' E 135°13'0 0.0
2018-Feb-15 20:59N 34°42' E 135°13'0 0.0
2018-Feb-15 20:29N 34°42' E 135°13'0 0.0
2018-Feb-15 19:59N 34°42' E 135°13'0 0.0
2018-Feb-15 19:29N 34°42' E 135°13'0 0.0
2018-Feb-15 18:59N 34°42' E 135°13'0 0.0
2018-Feb-15 18:29N 34°42' E 135°13'0 0.0
2018-Feb-15 17:59N 34°42' E 135°13'0 0.0
2018-Feb-15 17:29N 34°42' E 135°13'0 0.0
2018-Feb-15 16:59N 34°42' E 135°13'0 0.0
2018-Feb-15 16:29N 34°42' E 135°13'0 0.0
2018-Feb-15 15:59N 34°42' E 135°13'0 0.0
2018-Feb-15 15:29N 34°42' E 135°13'0 0.0
2018-Feb-15 14:59N 34°42' E 135°13'0 0.0
2018-Feb-15 14:29N 34°42' E 135°13'0 0.0
2018-Feb-15 13:59N 34°42' E 135°13'0 0.0
2018-Feb-15 13:29N 34°42' E 135°13'0 0.0
2018-Feb-15 12:59N 34°42' E 135°13'0 0.0
2018-Feb-15 12:29N 34°42' E 135°13'0 0.0
2018-Feb-15 11:59N 34°42' E 135°13'0 0.0
2018-Feb-15 11:29N 34°42' E 135°13'0 0.0
2018-Feb-15 10:59N 34°42' E 135°13'0 0.0
2018-Feb-15 10:29N 34°42' E 135°13'0 0.0
2018-Feb-15 09:59N 34°42' E 135°13'0 0.0
2018-Feb-15 09:29N 34°42' E 135°13'0 0.0
2018-Feb-15 08:59N 34°42' E 135°13'0 0.0
2018-Feb-15 08:29N 34°42' E 135°13'0 0.0
2018-Feb-15 07:59N 34°42' E 135°13'0 0.6
2018-Feb-15 07:30N 34°41' E 135°13'4 7.4
2018-Feb-15 07:00N 34°38' E 135°16'2 3.3
2018-Feb-15 06:29N 34°37' E 135°14'0 0.0
2018-Feb-15 05:59N 34°37' E 135°14'0 0.0
2018-Feb-15 05:29N 34°37' E 135°14'0 0.0
2018-Feb-15 04:59N 34°37' E 135°14'0 0.0
2018-Feb-15 04:29N 34°37' E 135°14'0 0.0
2018-Feb-15 03:59N 34°37' E 135°14'2 4.2
2018-Feb-15 03:30N 34°36' E 135°12'510.2
2018-Feb-15 03:00N 34°35' E 135°07'610.9
2018-Feb-15 02:30N 34°37' E 135°01'611.6
2018-Feb-15 02:00N 34°35' E 134°54'5 9.7
2018-Feb-15 01:31N 34°33' E 134°49'5 9.7
2018-Feb-15 01:00N 34°31' E 134°43'510.6
2018-Feb-15 00:31N 34°29' E 134°37'510.8
2018-Feb-15 00:00N 34°27' E 134°31'510.6
2018-Feb-14 23:30N 34°25' E 134°25'510.4
2018-Feb-14 23:00N 34°24' E 134°19'510.1
2018-Feb-14 22:30N 34°24' E 134°13'8 9.5
2018-Feb-14 21:40N 34°26' E 134°04'66 9.6
2018-Feb-14 14:49N 34°04' E 132°49'410.9
2018-Feb-14 14:28N 34°01' E 132°46'511.2
2018-Feb-14 14:00N 33°57' E 132°43'611.6
2018-Feb-14 13:30N 33°53' E 132°37'611.6
2018-Feb-14 13:01N 33°49' E 132°32'611.6
2018-Feb-14 12:30N 33°46' E 132°26'711.9
2018-Feb-14 11:57N 33°43' E 132°19'1512.0
2018-Feb-14 10:44N 33°34' E 132°05'512.2
2018-Feb-14 10:17N 33°31' E 131°60'312.1
2018-Feb-14 10:00N 33°29' E 131°56'612.1
2018-Feb-14 09:30N 33°25' E 131°51'611.6
2018-Feb-14 09:00N 33°22' E 131°45'511.0
2018-Feb-14 08:30N 33°18' E 131°40'3 0.2
2018-Feb-13 21:32N 33°16' E 131°40'0 1.2
2018-Feb-13 21:27N 33°16' E 131°40'2 3.9
2018-Feb-13 21:00N 33°17' E 131°40'4 6.8
2018-Feb-13 20:29N 33°17' E 131°45'2 4.2
2018-Feb-13 19:59N 33°16' E 131°47'0 0.0
2018-Feb-13 19:23N 33°16' E 131°47'0 0.1
2018-Feb-13 18:47N 33°16' E 131°47'0 0.0
2018-Feb-13 18:29N 33°16' E 131°47'0 0.0
2018-Feb-13 17:59N 33°16' E 131°47'0 0.0
2018-Feb-13 17:11N 33°16' E 131°47'0 0.0
2018-Feb-13 16:59N 33°16' E 131°47'0 0.0
2018-Feb-13 16:29N 33°16' E 131°47'0 0.0
2018-Feb-13 15:53N 33°16' E 131°47'0 0.0
2018-Feb-13 15:23N 33°16' E 131°47'0 0.0
2018-Feb-13 14:53N 33°16' E 131°47'0 0.0
2018-Feb-13 14:29N 33°16' E 131°47'0 0.0
2018-Feb-13 13:59N 33°16' E 131°47'0 0.0
2018-Feb-13 13:23N 33°16' E 131°47'0 0.0
2018-Feb-13 12:08N 33°16' E 131°47'0 0.1
2018-Feb-13 11:53N 33°16' E 131°47'0 0.0
2018-Feb-13 11:29N 33°16' E 131°47'0 0.0
2018-Feb-13 10:59N 33°16' E 131°47'0 0.0
2018-Feb-13 10:26N 33°16' E 131°47'0 0.0
2018-Feb-13 09:53N 33°16' E 131°47'0 0.0
2018-Feb-13 09:27N 33°16' E 131°47'2 3.9
2018-Feb-13 09:00N 33°18' E 131°47'611.2
2018-Feb-13 08:30N 33°23' E 131°48'610.9
2018-Feb-13 08:00N 33°29' E 131°49'510.7
2018-Feb-13 07:30N 33°34' E 131°49'611.0
2018-Feb-13 06:58N 33°39' E 131°46'511.4
2018-Feb-13 06:30N 33°44' E 131°43'611.2
2018-Feb-13 06:01N 33°46' E 131°37'611.6
2018-Feb-13 05:29N 33°48' E 131°30'611.6
2018-Feb-13 05:00N 33°49' E 131°23'611.9
2018-Feb-13 04:30N 33°50' E 131°17'611.9
2018-Feb-13 04:00N 33°52' E 131°10'611.9
2018-Feb-13 03:30N 33°56' E 131°04'510.2
2018-Feb-13 03:00N 33°58' E 130°59'5 9.6
2018-Feb-13 02:30N 33°54' E 130°55'5 9.6
2018-Feb-13 02:00N 33°58' E 130°51'510.1
2018-Feb-13 01:30N 34°02' E 130°48'611.2
2018-Feb-13 01:00N 34°03' E 130°41'611.4
2018-Feb-13 00:30N 34°03' E 130°34'611.2
2018-Feb-13 00:00N 34°03' E 130°28'611.2
2018-Feb-12 23:30N 34°03' E 130°21'611.3
2018-Feb-12 23:00N 34°03' E 130°14'611.3
2018-Feb-12 22:30N 34°03' E 130°07'611.1
2018-Feb-12 22:00N 34°03' E 130°00'611.2
2018-Feb-12 21:30N 34°02' E 129°54'  
2018-Feb-10 11:06N 34°24' E 130°11'110.2
2018-Feb-10 11:00N 34°23' E 130°12'  

Dump ship's entire track history